Time;durP1;ratioP1;P1;durP2;ratioP2;P2;SDS_P1;SDS_P2;PMS_P1;PMS_P2;Temp;Humidity;BMP_temperature;BMP_pressure;BME280_temperature;BME280_humidity;BME280_pressure;Samples;Min_cycle;Max_cycle;Signal;HPM_P1;HPM_P2
2022/03/02 00:01:38;;;;;;;6.53;5.33;;;4.40;94.70;;;;;;5027513;28;20478;-72
2022/03/02 00:04:04;;;;;;;9.77;6.50;;;4.40;94.80;;;;;;5013206;28;20447;-69
2022/03/02 00:06:30;;;;;;;9.70;5.47;;;4.40;94.80;;;;;;5013362;28;20227;-69
2022/03/02 00:08:56;;;;;;;8.97;6.20;;;4.40;94.80;;;;;;4999776;28;20452;-69
2022/03/02 00:11:22;;;;;;;9.50;5.87;;;4.40;94.70;;;;;;4996596;28;20472;-70
2022/03/02 00:13:48;;;;;;;7.90;5.77;;;4.40;94.70;;;;;;5013840;28;20452;-69
2022/03/02 00:16:14;;;;;;;6.53;4.90;;;4.40;94.80;;;;;;5028379;28;20471;-70
2022/03/02 00:18:40;;;;;;;8.60;6.00;;;4.40;94.70;;;;;;5013397;28;20233;-69
2022/03/02 00:21:06;;;;;;;8.27;5.17;;;4.30;94.50;;;;;;5026468;28;20459;-71
2022/03/02 00:23:32;;;;;;;14.00;6.27;;;4.30;94.60;;;;;;5029415;28;20539;-68
2022/03/02 00:25:58;;;;;;;7.47;5.57;;;4.30;94.40;;;;;;5013807;28;20232;-69
2022/03/02 00:28:24;;;;;;;9.53;5.53;;;4.30;94.60;;;;;;5026623;28;20225;-71
2022/03/02 00:30:50;;;;;;;8.63;5.70;;;4.30;94.60;;;;;;5001764;28;20300;-69
2022/03/02 00:33:17;;;;;;;9.70;6.20;;;4.30;94.50;;;;;;5011984;28;20456;-69
2022/03/02 00:35:43;;;;;;;10.60;5.07;;;4.30;94.40;;;;;;5013343;28;20467;-70
2022/03/02 00:38:10;;;;;;;7.80;5.67;;;4.20;94.20;;;;;;5013264;28;20464;-71
2022/03/02 00:40:41;;;;;;;10.43;5.93;;;4.10;94.20;;;;;;5029736;28;20466;-68
2022/03/02 00:43:08;;;;;;;9.53;5.80;;;4.10;94.50;;;;;;5029349;28;20460;-68
2022/03/02 00:45:34;;;;;;;10.47;6.23;;;4.10;94.60;;;;;;5013001;28;20455;-69
2022/03/02 00:48:00;;;;;;;10.30;5.53;;;4.10;94.60;;;;;;5030896;28;20489;-69
2022/03/02 00:50:26;;;;;;;9.53;6.27;;;4.10;94.50;;;;;;5012940;28;20971;-68
2022/03/02 00:52:53;;;;;;;11.03;6.40;;;4.10;94.50;;;;;;4997369;28;20491;-68
2022/03/02 00:55:19;;;;;;;8.10;5.43;;;4.10;94.60;;;;;;5013203;28;20991;-68
2022/03/02 00:57:44;;;;;;;8.70;5.60;;;4.10;94.60;;;;;;5030568;28;20459;-69
2022/03/02 01:00:11;;;;;;;9.87;6.17;;;4.10;94.50;;;;;;5012445;28;20229;-67
2022/03/02 01:02:37;;;;;;;12.93;6.17;;;4.10;94.50;;;;;;4996641;28;20594;-68
2022/03/02 01:05:05;;;;;;;8.73;6.17;;;4.10;94.50;;;;;;5011567;28;20454;-68
2022/03/02 01:07:31;;;;;;;13.70;6.63;;;4.10;94.70;;;;;;5029070;28;20479;-68
2022/03/02 01:09:57;;;;;;;10.50;6.53;;;4.10;94.80;;;;;;5029682;28;20455;-69
2022/03/02 01:12:23;;;;;;;10.47;6.97;;;4.10;94.90;;;;;;5015338;28;20451;-67
2022/03/02 01:14:49;;;;;;;17.83;7.67;;;4.10;94.80;;;;;;5018107;28;20451;-69
2022/03/02 01:17:15;;;;;;;12.20;6.77;;;4.10;94.80;;;;;;5028126;28;20463;-69
2022/03/02 01:19:40;;;;;;;13.47;7.17;;;4.10;94.80;;;;;;5030151;28;20491;-69
2022/03/02 01:22:07;;;;;;;9.13;5.67;;;4.00;94.50;;;;;;4996317;28;20255;-68
2022/03/02 01:24:33;;;;;;;8.80;6.03;;;4.00;94.70;;;;;;5011625;28;20581;-70
2022/03/02 01:27:01;;;;;;;14.40;7.17;;;4.00;94.70;;;;;;5025928;28;20452;-70
2022/03/02 01:29:30;;;;;;;10.27;6.40;;;4.00;94.80;;;;;;5015665;28;20471;-69
2022/03/02 01:31:59;;;;;;;9.67;5.57;;;4.00;94.80;;;;;;5012148;28;20443;-69
2022/03/02 01:34:24;;;;;;;8.50;6.30;;;4.00;94.50;;;;;;5011316;28;20998;-69
2022/03/02 01:36:50;;;;;;;16.00;7.07;;;4.00;94.60;;;;;;5012729;28;20467;-68
2022/03/02 01:39:16;;;;;;;13.90;6.60;;;4.00;94.70;;;;;;5002215;28;20599;-69
2022/03/02 01:41:42;;;;;;;7.50;5.00;;;4.00;94.70;;;;;;5016339;28;20794;-69
2022/03/02 01:44:07;;;;;;;6.70;4.50;;;4.00;94.70;;;;;;5019697;28;20536;-69
2022/03/02 01:46:34;;;;;;;10.03;6.33;;;3.90;94.80;;;;;;5009471;28;20228;-68
2022/03/02 01:49:00;;;;;;;15.30;6.43;;;3.90;94.60;;;;;;5029418;28;20258;-71
2022/03/02 01:51:25;;;;;;;12.00;5.97;;;3.90;94.70;;;;;;5028017;28;20558;-70
2022/03/02 01:53:51;;;;;;;11.27;7.00;;;3.90;94.40;;;;;;5012362;28;20263;-69
2022/03/02 01:56:17;;;;;;;8.07;6.20;;;3.80;94.60;;;;;;5010178;28;20290;-68
2022/03/02 01:58:45;;;;;;;9.90;5.97;;;3.80;94.60;;;;;;5013362;28;20228;-69
2022/03/02 02:01:11;;;;;;;10.50;6.60;;;3.80;94.70;;;;;;5024708;28;20517;-72
2022/03/02 02:03:38;;;;;;;11.43;7.10;;;3.80;94.70;;;;;;4994661;28;20517;-68
2022/03/02 02:06:04;;;;;;;12.33;6.70;;;3.80;94.60;;;;;;5009470;28;20463;-71
2022/03/02 02:08:30;;;;;;;7.80;6.10;;;3.80;94.70;;;;;;5006119;28;20454;-69
2022/03/02 02:10:57;;;;;;;8.87;5.87;;;3.80;94.80;;;;;;5027331;28;21006;-68
2022/03/02 02:13:27;;;;;;;8.47;6.13;;;3.80;94.90;;;;;;5016012;28;20455;-69
2022/03/02 02:15:54;;;;;;;13.20;6.33;;;3.80;94.70;;;;;;5030000;28;20468;-69
2022/03/02 02:18:20;;;;;;;10.30;5.70;;;3.80;94.70;;;;;;5009163;28;20463;-68
2022/03/02 02:20:46;;;;;;;8.87;5.87;;;3.80;94.70;;;;;;5028967;28;20842;-69
2022/03/02 02:23:12;;;;;;;9.27;5.37;;;3.80;94.90;;;;;;5011555;28;20459;-68
2022/03/02 02:25:38;;;;;;;10.00;7.20;;;3.80;94.70;;;;;;5010755;28;20224;-68
2022/03/02 02:28:03;;;;;;;7.23;5.10;;;3.80;94.90;;;;;;5023684;28;20456;-68
2022/03/02 02:30:30;;;;;;;8.73;5.00;;;3.70;94.80;;;;;;4992751;28;20216;-69
2022/03/02 02:32:56;;;;;;;11.23;6.33;;;3.70;94.80;;;;;;5010533;28;20318;-69
2022/03/02 02:35:22;;;;;;;7.90;5.57;;;3.70;94.80;;;;;;5013769;28;20490;-69
2022/03/02 02:37:48;;;;;;;8.10;5.53;;;3.70;94.90;;;;;;5025564;28;20467;-69
2022/03/02 02:40:17;;;;;;;9.20;6.23;;;3.70;95.00;;;;;;5027879;28;20471;-68
2022/03/02 02:42:45;;;;;;;10.37;6.50;;;3.70;94.80;;;;;;5010815;28;20443;-68
2022/03/02 02:45:14;;;;;;;9.57;6.37;;;3.70;94.80;;;;;;5020453;28;20452;-71
2022/03/02 02:47:41;;;;;;;12.37;6.03;;;3.70;94.80;;;;;;5038983;28;20442;-70
2022/03/02 02:50:21;;;;;;;9.13;6.10;;;3.60;94.90;;;;;;5049055;28;20469;-69
2022/03/02 02:52:49;;;;;;;7.80;5.80;;;3.60;94.90;;;;;;5048645;28;20458;-69
2022/03/02 02:55:15;;;;;;;11.07;6.43;;;3.60;94.80;;;;;;5047482;28;20486;-69
2022/03/02 02:57:42;;;;;;;7.07;5.43;;;3.60;94.90;;;;;;5020485;28;20975;-68
2022/03/02 03:00:12;;;;;;;10.33;5.90;;;3.60;95.00;;;;;;5027466;28;20478;-69
2022/03/02 03:02:39;;;;;;;10.10;5.93;;;3.60;95.00;;;;;;5017077;28;21081;-69
2022/03/02 03:05:08;;;;;;;12.73;5.80;;;3.50;94.90;;;;;;5028405;28;20601;-69
2022/03/02 03:07:34;;;;;;;9.07;5.73;;;3.50;94.80;;;;;;5028237;28;20448;-69
2022/03/02 03:10:00;;;;;;;9.53;6.13;;;3.50;95.00;;;;;;5029003;28;20470;-67
2022/03/02 03:12:25;;;;;;;7.40;5.97;;;3.40;95.00;;;;;;5010848;28;20236;-72
2022/03/02 03:14:51;;;;;;;7.60;5.53;;;3.40;94.90;;;;;;5035923;28;20254;-69
2022/03/02 03:17:17;;;;;;;9.03;5.27;;;3.40;95.10;;;;;;5010415;28;20239;-69
2022/03/02 03:19:42;;;;;;;13.93;6.70;;;3.40;94.90;;;;;;5021835;28;20283;-68
2022/03/02 03:22:08;;;;;;;8.80;5.47;;;3.40;95.00;;;;;;5004429;28;20233;-69
2022/03/02 03:24:34;;;;;;;6.90;5.53;;;3.40;95.10;;;;;;5014931;28;20220;-68
2022/03/02 03:27:00;;;;;;;7.23;5.30;;;3.40;95.10;;;;;;5016488;28;20264;-69
2022/03/02 03:29:26;;;;;;;9.73;6.30;;;3.40;95.00;;;;;;5011944;28;20455;-68
2022/03/02 03:31:52;;;;;;;7.57;5.27;;;3.40;95.00;;;;;;5019539;28;20451;-69
2022/03/02 03:34:18;;;;;;;7.83;5.60;;;3.40;95.00;;;;;;5030542;28;20661;-71
2022/03/02 03:36:44;;;;;;;10.47;6.63;;;3.40;95.00;;;;;;5046293;28;20762;-69
2022/03/02 03:39:10;;;;;;;13.40;6.93;;;3.40;95.00;;;;;;5036634;28;20692;-69
2022/03/02 03:41:35;;;;;;;10.77;6.00;;;3.30;95.00;;;;;;5034823;28;20466;-68
2022/03/02 03:44:01;;;;;;;9.93;6.03;;;3.30;94.90;;;;;;5052198;28;20224;-69
2022/03/02 03:46:28;;;;;;;10.40;6.00;;;3.30;94.90;;;;;;5022570;28;20669;-70
2022/03/02 03:48:53;;;;;;;6.80;4.57;;;3.30;94.90;;;;;;5011328;28;20464;-70
2022/03/02 03:51:19;;;;;;;10.90;6.10;;;3.30;94.90;;;;;;5012430;28;20482;-70
2022/03/02 03:53:45;;;;;;;8.83;4.93;;;3.30;95.10;;;;;;5011163;28;20229;-70
2022/03/02 03:56:11;;;;;;;9.57;5.17;;;3.30;95.20;;;;;;5019733;28;20838;-70
2022/03/02 03:58:37;;;;;;;7.90;5.80;;;3.30;95.20;;;;;;5047228;28;20219;-69
2022/03/02 04:01:02;;;;;;;7.93;5.10;;;3.30;95.20;;;;;;5041763;28;20286;-69
2022/03/02 04:03:28;;;;;;;11.20;5.57;;;3.30;95.20;;;;;;5030744;28;20224;-69
2022/03/02 04:05:54;;;;;;;7.03;5.10;;;3.30;95.20;;;;;;5009274;28;20236;-70
2022/03/02 04:08:20;;;;;;;8.07;5.33;;;3.30;95.20;;;;;;5011061;28;20245;-69
2022/03/02 04:10:46;;;;;;;10.03;5.10;;;3.20;95.20;;;;;;5026392;28;20224;-69
2022/03/02 04:13:12;;;;;;;8.90;5.73;;;3.20;95.20;;;;;;5007753;28;20468;-70
2022/03/02 04:15:38;;;;;;;7.67;5.63;;;3.20;95.30;;;;;;5036023;28;20475;-69
2022/03/02 04:18:06;;;;;;;10.07;6.40;;;3.20;95.20;;;;;;5017746;28;20220;-69
2022/03/02 04:20:33;;;;;;;13.10;5.90;;;3.20;95.40;;;;;;5028939;28;20459;-69
2022/03/02 04:22:59;;;;;;;16.80;6.40;;;3.20;95.30;;;;;;5031214;28;20459;-69
2022/03/02 04:25:25;;;;;;;7.90;6.20;;;3.20;95.20;;;;;;5028779;28;20997;-69
2022/03/02 04:27:51;;;;;;;13.47;7.00;;;3.20;95.30;;;;;;5008651;28;20225;-69
2022/03/02 04:30:17;;;;;;;12.50;6.97;;;3.20;95.40;;;;;;5005986;28;20621;-68
2022/03/02 04:32:43;;;;;;;11.67;6.03;;;3.10;95.30;;;;;;5011102;28;20242;-70
2022/03/02 04:35:10;;;;;;;10.17;5.77;;;3.10;95.40;;;;;;5023780;28;20483;-69
2022/03/02 04:37:37;;;;;;;9.80;5.73;;;3.10;95.40;;;;;;5020329;28;20509;-67
2022/03/02 04:40:05;;;;;;;8.10;5.50;;;3.20;95.50;;;;;;5029450;28;20463;-70
2022/03/02 04:42:30;;;;;;;7.50;5.50;;;3.10;95.40;;;;;;5029554;28;20517;-69
2022/03/02 04:44:56;;;;;;;10.73;5.40;;;3.20;95.50;;;;;;5012387;28;20459;-69
2022/03/02 04:47:22;;;;;;;8.17;5.87;;;3.20;95.40;;;;;;5021663;28;20235;-70
2022/03/02 04:49:47;;;;;;;15.80;6.53;;;3.10;95.40;;;;;;5012431;28;20244;-69
2022/03/02 04:52:13;;;;;;;7.70;5.10;;;3.10;95.40;;;;;;5013360;28;20239;-68
2022/03/02 04:57:23;;;;;;;12.13;6.07;;;3.10;95.50;;;;;;5030209;28;20232;-69
2022/03/02 04:59:49;;;;;;;12.20;7.03;;;3.10;95.60;;;;;;4996982;28;20450;-69
2022/03/02 05:02:14;;;;;;;10.47;6.67;;;3.10;95.60;;;;;;5029980;28;20282;-68
2022/03/02 05:04:40;;;;;;;9.10;6.00;;;3.10;95.60;;;;;;5024704;28;20220;-70
2022/03/02 05:07:06;;;;;;;8.53;6.10;;;3.10;95.70;;;;;;5030799;28;20278;-68
2022/03/02 05:09:32;;;;;;;10.17;7.20;;;3.10;95.80;;;;;;5030012;28;20216;-70
2022/03/02 05:11:57;;;;;;;10.60;5.93;;;3.10;95.90;;;;;;5029233;28;20697;-69
2022/03/02 05:14:23;;;;;;;11.00;7.33;;;3.10;95.70;;;;;;5029908;28;20312;-67
2022/03/02 05:16:49;;;;;;;9.60;5.20;;;3.10;95.70;;;;;;5025536;28;20237;-68
2022/03/02 05:19:14;;;;;;;9.00;6.10;;;3.10;95.70;;;;;;5009641;28;20236;-69
2022/03/02 05:21:40;;;;;;;8.53;5.67;;;3.10;95.80;;;;;;5030076;28;20255;-69
2022/03/02 05:24:06;;;;;;;6.10;4.40;;;3.10;96.00;;;;;;5030139;28;20800;-69
2022/03/02 05:26:33;;;;;;;8.93;5.50;;;3.10;96.10;;;;;;5029555;28;20307;-68
2022/03/02 05:28:58;;;;;;;7.93;5.27;;;3.10;96.00;;;;;;5021435;28;20231;-70
2022/03/02 05:31:24;;;;;;;10.77;6.33;;;3.10;95.90;;;;;;5009722;28;20463;-68
2022/03/02 05:33:51;;;;;;;7.70;5.60;;;3.10;95.90;;;;;;5025752;28;20229;-68
2022/03/02 05:36:18;;;;;;;8.13;4.97;;;3.10;96.00;;;;;;5025474;28;20240;-70
2022/03/02 05:38:43;;;;;;;12.20;5.93;;;3.10;96.30;;;;;;5015016;28;20519;-70
2022/03/02 05:41:09;;;;;;;7.00;5.40;;;3.10;96.10;;;;;;5008373;28;21162;-69
2022/03/02 05:43:35;;;;;;;7.90;5.43;;;3.10;96.10;;;;;;5029367;28;20224;-69
2022/03/02 05:46:00;;;;;;;8.47;4.60;;;3.10;96.00;;;;;;5011620;28;20220;-69
2022/03/02 05:48:26;;;;;;;6.27;4.50;;;3.10;96.10;;;;;;5021731;28;20243;-69
2022/03/02 05:50:52;;;;;;;7.17;4.80;;;3.10;96.10;;;;;;5011180;28;20244;-69
2022/03/02 05:53:17;;;;;;;5.83;4.30;;;3.10;96.00;;;;;;5012900;28;20225;-72
2022/03/02 05:55:43;;;;;;;10.00;6.00;;;3.00;96.10;;;;;;5011728;28;20363;-70
2022/03/02 05:58:09;;;;;;;8.27;4.73;;;3.00;96.20;;;;;;5028340;28;20225;-69
2022/03/02 06:00:36;;;;;;;8.00;4.90;;;3.00;96.20;;;;;;5023790;28;20227;-68
2022/03/02 06:03:02;;;;;;;9.33;5.10;;;3.00;96.40;;;;;;5016542;28;20247;-70
2022/03/02 06:05:28;;;;;;;8.50;5.53;;;3.00;95.80;;;;;;5022271;28;20479;-68
2022/03/02 06:07:54;;;;;;;10.47;5.67;;;3.00;96.10;;;;;;5009815;28;20444;-71
2022/03/02 06:10:20;;;;;;;14.23;6.10;;;3.10;96.20;;;;;;5006942;28;20262;-68
2022/03/02 06:12:46;;;;;;;10.67;5.40;;;3.10;96.20;;;;;;5026882;28;20277;-68
2022/03/02 06:15:12;;;;;;;10.73;5.67;;;3.10;96.20;;;;;;5025024;28;20463;-69
2022/03/02 06:17:39;;;;;;;11.13;6.40;;;3.10;96.30;;;;;;5021639;28;20475;-69
2022/03/02 06:20:06;;;;;;;8.83;5.60;;;3.10;96.30;;;;;;5029076;28;20463;-69
2022/03/02 06:22:32;;;;;;;8.47;5.27;;;3.10;96.30;;;;;;5000749;28;20523;-68
2022/03/02 06:24:58;;;;;;;14.83;7.63;;;3.10;96.40;;;;;;5011211;28;20463;-68
2022/03/02 06:27:24;;;;;;;13.30;6.40;;;3.10;96.50;;;;;;5028635;28;20243;-68
2022/03/02 06:29:50;;;;;;;9.77;6.77;;;3.10;96.60;;;;;;5019811;28;20494;-69
2022/03/02 06:32:15;;;;;;;11.60;6.40;;;3.10;96.60;;;;;;5007082;28;20487;-69
2022/03/02 06:34:42;;;;;;;10.20;5.83;;;3.10;96.80;;;;;;5009015;28;20678;-69
2022/03/02 06:37:08;;;;;;;7.53;4.83;;;3.10;96.60;;;;;;5021946;28;20235;-70
2022/03/02 06:39:34;;;;;;;7.53;5.23;;;3.10;96.70;;;;;;5006347;28;20582;-69
2022/03/02 06:42:35;;;;;;;7.47;5.33;;;3.00;96.80;;;;;;5024592;28;20266;-68
2022/03/02 06:45:16;;;;;;;7.03;4.90;;;3.00;96.70;;;;;;5005861;28;20244;-71
2022/03/02 06:47:51;;;;;;;7.97;5.30;;;3.10;96.90;;;;;;5015516;28;20465;-69
2022/03/02 06:50:24;;;;;;;8.70;6.30;;;3.10;97.00;;;;;;5019380;28;20478;-69
2022/03/02 06:52:53;;;;;;;6.50;5.10;;;3.10;97.00;;;;;;5007689;28;20590;-72
2022/03/02 06:55:19;;;;;;;6.93;5.50;;;3.10;97.10;;;;;;5007897;28;20499;-69
2022/03/02 06:57:51;;;;;;;6.17;4.87;;;3.10;96.90;;;;;;4997914;28;20484;-69
2022/03/02 07:00:17;;;;;;;11.27;5.70;;;3.10;97.20;;;;;;5008637;28;20366;-71
2022/03/02 07:02:57;;;;;;;8.87;6.23;;;3.20;97.00;;;;;;5018388;28;20535;-69
2022/03/02 07:05:23;;;;;;;10.70;5.77;;;3.20;97.00;;;;;;4990438;28;20475;-69
2022/03/02 07:07:48;;;;;;;9.67;5.13;;;3.20;96.90;;;;;;5008138;28;20448;-72
2022/03/02 07:10:15;;;;;;;8.80;5.90;;;3.20;97.00;;;;;;5021858;28;20285;-69
2022/03/02 07:12:41;;;;;;;11.60;5.13;;;3.20;96.90;;;;;;5011683;28;20239;-69
2022/03/02 07:15:08;;;;;;;12.20;6.83;;;3.20;96.90;;;;;;5012614;28;20454;-69
2022/03/02 07:17:34;;;;;;;39.67;16.03;;;3.30;97.00;;;;;;5011874;28;20447;-68
2022/03/02 07:20:04;;;;;;;60.20;24.93;;;3.20;96.90;;;;;;5012070;28;20466;-69
2022/03/02 07:22:36;;;;;;;32.13;15.33;;;3.30;96.90;;;;;;5021418;28;20603;-67
2022/03/02 07:25:10;;;;;;;23.17;10.27;;;3.30;96.90;;;;;;5003919;28;20508;-70
2022/03/02 07:27:40;;;;;;;18.87;9.40;;;3.30;96.90;;;;;;5024049;28;21025;-69
2022/03/02 07:30:08;;;;;;;20.33;9.20;;;3.30;97.00;;;;;;5027924;28;20471;-70
2022/03/02 07:32:36;;;;;;;13.23;8.17;;;3.30;97.00;;;;;;5022191;28;20471;-69
2022/03/02 07:35:05;;;;;;;12.53;7.90;;;3.30;97.00;;;;;;5027836;28;20525;-71
2022/03/02 07:37:34;;;;;;;18.93;8.40;;;3.30;97.10;;;;;;5010560;28;20464;-72
2022/03/02 07:40:01;;;;;;;15.33;8.17;;;3.30;97.10;;;;;;5012005;28;20447;-69
2022/03/02 07:42:27;;;;;;;13.77;7.70;;;3.30;97.10;;;;;;5022252;28;20476;-70
2022/03/02 07:44:54;;;;;;;12.40;6.90;;;3.30;97.20;;;;;;5009097;28;20446;-69
2022/03/02 07:47:19;;;;;;;14.17;7.00;;;3.40;97.30;;;;;;5015988;28;20212;-69
2022/03/02 07:49:46;;;;;;;12.40;7.33;;;3.40;97.20;;;;;;5021896;28;20467;-72
2022/03/02 07:52:14;;;;;;;12.77;8.50;;;3.40;97.10;;;;;;5007672;28;20291;-70
2022/03/02 07:54:41;;;;;;;15.47;9.30;;;3.40;97.20;;;;;;5011079;28;20821;-70
2022/03/02 07:57:10;;;;;;;11.30;7.13;;;3.40;97.10;;;;;;5009631;28;20468;-69
2022/03/02 07:59:38;;;;;;;10.30;6.90;;;3.40;97.10;;;;;;5000138;28;20619;-70
2022/03/02 08:02:06;;;;;;;9.73;6.63;;;3.40;97.10;;;;;;5009577;28;20464;-70
2022/03/02 08:04:32;;;;;;;9.00;6.30;;;3.40;97.10;;;;;;5021666;28;20452;-68
2022/03/02 08:06:59;;;;;;;9.47;6.03;;;3.40;97.10;;;;;;5007504;28;20552;-70
2022/03/02 08:09:24;;;;;;;12.03;6.27;;;3.40;97.10;;;;;;5022101;28;20463;-70
2022/03/02 08:11:50;;;;;;;10.70;6.23;;;3.40;97.30;;;;;;5027012;28;20473;-72
2022/03/02 08:14:21;;;;;;;9.00;5.93;;;3.50;97.30;;;;;;5024602;28;20259;-69
2022/03/02 08:16:47;;;;;;;10.60;6.90;;;3.50;97.40;;;;;;5020078;28;20240;-70
2022/03/02 08:19:13;;;;;;;9.90;5.87;;;3.50;97.20;;;;;;5022932;28;20468;-70
2022/03/02 08:21:42;;;;;;;7.67;5.50;;;3.50;97.30;;;;;;5006309;28;20465;-69
2022/03/02 08:24:12;;;;;;;8.90;5.70;;;3.50;97.30;;;;;;5008180;28;20468;-69
2022/03/02 08:26:39;;;;;;;8.27;5.90;;;3.50;97.30;;;;;;5020948;28;20451;-68
2022/03/02 08:29:08;;;;;;;7.30;5.23;;;3.50;97.40;;;;;;5008525;28;20447;-70
2022/03/02 08:31:39;;;;;;;9.97;6.67;;;3.60;97.50;;;;;;5023878;28;20503;-69
2022/03/02 08:34:09;;;;;;;11.97;5.57;;;3.60;97.50;;;;;;5002457;28;20475;-71
2022/03/02 08:36:35;;;;;;;8.37;6.30;;;3.60;97.50;;;;;;5005662;28;20460;-69
2022/03/02 08:39:05;;;;;;;8.53;5.77;;;3.60;97.40;;;;;;5025040;28;20463;-69
2022/03/02 08:41:31;;;;;;;15.37;5.73;;;3.60;97.20;;;;;;5017913;28;20559;-69
2022/03/02 08:43:57;;;;;;;11.17;6.57;;;3.60;97.40;;;;;;5006735;28;20533;-69
2022/03/02 08:46:24;;;;;;;9.03;5.30;;;3.60;97.40;;;;;;5007978;28;20471;-70
2022/03/02 08:48:51;;;;;;;9.20;5.93;;;3.70;97.50;;;;;;5022460;28;20467;-70
2022/03/02 08:51:20;;;;;;;6.03;4.97;;;3.70;97.60;;;;;;4990592;28;20463;-69
2022/03/02 08:53:47;;;;;;;9.47;6.17;;;3.70;97.60;;;;;;5022162;28;20505;-71
2022/03/02 08:56:13;;;;;;;9.20;5.97;;;3.70;97.60;;;;;;5022504;28;20521;-68
2022/03/02 08:58:41;;;;;;;6.93;5.20;;;3.70;97.50;;;;;;5012960;28;20464;-68
2022/03/02 09:01:11;;;;;;;10.57;5.43;;;3.70;97.40;;;;;;5027317;28;20251;-69
2022/03/02 09:03:40;;;;;;;7.97;5.70;;;3.80;97.50;;;;;;5009658;28;20455;-71
2022/03/02 09:06:07;;;;;;;9.10;5.43;;;3.80;97.60;;;;;;5008832;28;20490;-69
2022/03/02 09:08:33;;;;;;;9.80;6.17;;;3.80;97.60;;;;;;5026048;28;21039;-69
2022/03/02 09:11:00;;;;;;;7.97;5.40;;;3.80;97.70;;;;;;5026616;28;20465;-71
2022/03/02 09:13:26;;;;;;;7.70;6.13;;;3.90;97.50;;;;;;5001927;28;20522;-71
2022/03/02 09:15:52;;;;;;;5.77;4.50;;;3.90;97.70;;;;;;5008308;28;20476;-69
2022/03/02 09:18:17;;;;;;;9.83;6.03;;;3.90;97.30;;;;;;5025299;28;20268;-70
2022/03/02 09:20:46;;;;;;;8.70;5.70;;;3.90;97.90;;;;;;5004038;28;20225;-70
2022/03/02 09:23:12;;;;;;;8.10;5.23;;;3.90;97.40;;;;;;5006996;28;20776;-69
2022/03/02 09:25:40;;;;;;;10.63;5.97;;;3.90;97.60;;;;;;5024369;28;20456;-68
2022/03/02 09:28:10;;;;;;;8.30;4.93;;;4.00;97.20;;;;;;5019921;28;20464;-68
2022/03/02 09:30:37;;;;;;;10.90;5.97;;;4.00;97.40;;;;;;5024747;28;20487;-69
2022/03/02 09:33:06;;;;;;;10.57;6.37;;;4.00;97.40;;;;;;5019742;28;20452;-69
2022/03/02 09:35:33;;;;;;;8.40;6.27;;;4.00;97.30;;;;;;5005833;28;20471;-69
2022/03/02 09:37:59;;;;;;;8.37;6.10;;;4.00;97.20;;;;;;4997757;28;20460;-69
2022/03/02 09:40:28;;;;;;;9.07;6.23;;;4.00;97.20;;;;;;5001325;28;20456;-71
2022/03/02 09:43:00;;;;;;;8.03;6.07;;;4.00;97.20;;;;;;5015538;28;20460;-69
2022/03/02 09:45:28;;;;;;;10.50;6.80;;;4.00;97.20;;;;;;5015441;28;20445;-70
2022/03/02 09:47:57;;;;;;;10.73;6.60;;;4.10;97.20;;;;;;5024656;28;20524;-70
2022/03/02 09:50:25;;;;;;;8.30;6.07;;;4.10;97.20;;;;;;5020525;28;20458;-71
2022/03/02 09:52:53;;;;;;;6.70;5.07;;;4.10;97.00;;;;;;5000135;28;20487;-69
2022/03/02 09:55:24;;;;;;;12.23;5.97;;;4.10;97.00;;;;;;5016782;28;20452;-69
2022/03/02 09:57:52;;;;;;;7.00;5.07;;;4.10;96.70;;;;;;5015843;28;20464;-70
2022/03/02 10:00:20;;;;;;;7.03;5.50;;;4.10;96.60;;;;;;5023326;28;20463;-68
2022/03/02 10:02:50;;;;;;;8.07;5.60;;;4.10;96.80;;;;;;5009668;28;20448;-70
2022/03/02 10:05:20;;;;;;;9.30;5.90;;;4.10;96.80;;;;;;5004879;28;20853;-69
2022/03/02 10:08:05;;;;;;;11.37;5.87;;;4.10;96.60;;;;;;5002133;28;21094;-69
2022/03/02 10:10:33;;;;;;;14.10;7.83;;;4.10;96.60;;;;;;5018701;28;20459;-71
2022/03/02 10:13:08;;;;;;;15.10;8.47;;;4.10;96.60;;;;;;5014337;28;20451;-69
2022/03/02 10:15:34;;;;;;;20.87;10.67;;;4.10;96.60;;;;;;5020271;28;20485;-68
2022/03/02 10:18:02;;;;;;;25.60;12.27;;;4.20;96.40;;;;;;5016202;28;21051;-68
2022/03/02 10:20:30;;;;;;;18.23;9.80;;;4.20;96.50;;;;;;5018434;28;21012;-68
2022/03/02 10:23:01;;;;;;;20.53;10.10;;;4.20;96.30;;;;;;5021460;28;20459;-69
2022/03/02 10:25:39;;;;;;;22.30;10.40;;;4.20;96.50;;;;;;5003524;28;20456;-69
2022/03/02 10:28:07;;;;;;;18.47;10.00;;;4.20;96.50;;;;;;5023368;28;20459;-71
2022/03/02 10:30:37;;;;;;;22.03;11.07;;;4.20;96.60;;;;;;5006944;28;20455;-70
2022/03/02 10:33:11;;;;;;;19.07;10.03;;;4.20;96.70;;;;;;4986718;28;20480;-71
2022/03/02 10:35:43;;;;;;;14.83;7.47;;;4.20;96.60;;;;;;5005804;28;20489;-72
2022/03/02 10:38:15;;;;;;;17.50;7.70;;;4.20;96.60;;;;;;5008560;28;20455;-70
2022/03/02 10:40:41;;;;;;;12.47;6.80;;;4.20;96.60;;;;;;4998254;28;20516;-72
2022/03/02 10:43:13;;;;;;;9.63;6.83;;;4.20;96.50;;;;;;5014483;28;20463;-70
2022/03/02 10:45:44;;;;;;;8.77;5.83;;;4.20;96.40;;;;;;5021619;28;20509;-68
2022/03/02 10:48:13;;;;;;;9.60;6.37;;;4.30;96.40;;;;;;5018278;28;20497;-68
2022/03/02 10:50:40;;;;;;;13.40;5.87;;;4.30;96.40;;;;;;5020319;28;20517;-71
2022/03/02 10:53:13;;;;;;;8.47;5.40;;;4.30;96.40;;;;;;5009089;28;20542;-68
2022/03/02 10:55:42;;;;;;;10.63;6.43;;;4.30;96.40;;;;;;5016350;28;20499;-68
2022/03/02 10:58:13;;;;;;;9.33;5.43;;;4.30;96.30;;;;;;5007138;28;20538;-70
2022/03/02 11:00:39;;;;;;;8.20;6.07;;;4.30;96.50;;;;;;5004093;28;20444;-71
2022/03/02 11:03:07;;;;;;;7.80;5.43;;;4.30;96.40;;;;;;5022949;28;20451;-71
2022/03/02 11:05:34;;;;;;;11.23;5.70;;;4.30;96.40;;;;;;5023831;28;20477;-69
2022/03/02 11:08:01;;;;;;;11.40;6.67;;;4.30;96.10;;;;;;5005859;28;20503;-69
2022/03/02 11:10:37;;;;;;;10.23;5.70;;;4.40;96.30;;;;;;5022709;28;20849;-68
2022/03/02 11:13:11;;;;;;;19.80;9.83;;;4.40;96.30;;;;;;4998466;28;20459;-68
2022/03/02 11:15:53;;;;;;;21.87;14.50;;;4.40;96.40;;;;;;5006176;28;20522;-68
2022/03/02 11:18:36;;;;;;;20.33;14.47;;;4.40;96.60;;;;;;5018320;28;20684;-69
2022/03/02 11:21:10;;;;;;;21.30;13.47;;;4.50;96.70;;;;;;5006966;28;20463;-69
2022/03/02 11:23:44;;;;;;;13.10;9.93;;;4.50;96.70;;;;;;5011899;28;20455;-69
2022/03/02 11:26:18;;;;;;;13.03;8.60;;;4.50;96.50;;;;;;5013333;28;20459;-72
2022/03/02 11:28:52;;;;;;;13.40;7.00;;;4.50;96.30;;;;;;5001927;28;20451;-69
2022/03/02 11:31:29;;;;;;;10.60;6.23;;;4.50;96.30;;;;;;5014332;28;20464;-69
2022/03/02 11:34:28;;;;;;;7.90;6.10;;;4.60;96.60;;;;;;5007029;28;20486;-70
2022/03/02 11:36:56;;;;;;;9.80;6.10;;;4.60;96.60;;;;;;4970063;28;20465;-70
2022/03/02 11:39:25;;;;;;;8.40;6.07;;;4.60;96.40;;;;;;5012372;28;20458;-69
2022/03/02 11:41:53;;;;;;;13.60;6.40;;;4.60;96.40;;;;;;5016087;28;21116;-72
2022/03/02 11:44:29;;;;;;;12.30;7.00;;;4.60;96.40;;;;;;5029290;28;20463;-70
2022/03/02 11:46:56;;;;;;;13.67;6.50;;;4.70;96.70;;;;;;5008281;28;20479;-70
2022/03/02 11:49:57;;;;;;;9.97;6.40;;;4.70;96.80;;;;;;5001878;28;20840;-69
2022/03/02 11:52:33;;;;;;;9.00;5.80;;;4.70;96.60;;;;;;5003965;28;20464;-71
2022/03/02 11:55:12;;;;;;;10.47;6.47;;;4.70;96.50;;;;;;5019025;28;20463;-68
2022/03/02 11:57:50;;;;;;;9.73;6.37;;;4.80;96.50;;;;;;4999977;28;20463;-70
2022/03/02 12:00:19;;;;;;;13.77;7.20;;;4.80;96.40;;;;;;5010046;28;20617;-70
2022/03/02 12:02:51;;;;;;;6.90;5.80;;;4.90;96.60;;;;;;5009446;28;20466;-70
2022/03/02 12:05:22;;;;;;;9.40;5.90;;;4.90;96.40;;;;;;5009321;28;20855;-69
2022/03/02 12:07:50;;;;;;;9.23;6.67;;;4.90;96.50;;;;;;4998776;28;20492;-71
2022/03/02 12:10:17;;;;;;;9.73;6.33;;;4.90;96.60;;;;;;5008637;28;20494;-71
2022/03/02 12:12:44;;;;;;;9.73;7.40;;;5.00;96.50;;;;;;5031476;28;20450;-69
2022/03/02 12:15:10;;;;;;;9.53;7.23;;;5.10;96.70;;;;;;5010118;28;20966;-69
2022/03/02 12:17:36;;;;;;;11.07;7.07;;;5.10;96.90;;;;;;5030675;28;25278;-71
2022/03/02 12:20:35;;;;;;;13.00;6.93;;;5.20;97.10;;;;;;5027183;28;20473;-70
2022/03/02 12:23:01;;;;;;;9.80;5.57;;;5.30;97.10;;;;;;4980897;28;20463;-70
2022/03/02 12:25:28;;;;;;;10.53;6.20;;;5.40;96.90;;;;;;5023616;28;20514;-71
2022/03/02 12:27:57;;;;;;;7.13;6.43;;;5.40;96.90;;;;;;5009179;28;20228;-69
2022/03/02 12:30:23;;;;;;;9.23;6.03;;;5.50;96.70;;;;;;5017484;28;21036;-69
2022/03/02 12:32:52;;;;;;;7.67;5.53;;;5.50;97.00;;;;;;5020385;28;20467;-68
2022/03/02 12:35:22;;;;;;;16.97;6.43;;;5.60;96.70;;;;;;5007128;28;20462;-69
2022/03/02 12:37:48;;;;;;;11.40;5.90;;;5.60;96.90;;;;;;5023852;28;20464;-72
2022/03/02 12:40:14;;;;;;;10.70;6.20;;;5.70;97.60;;;;;;5034653;28;20959;-68
2022/03/02 12:42:43;;;;;;;12.80;7.33;;;5.90;97.50;;;;;;5020005;28;20474;-69
2022/03/02 12:45:09;;;;;;;8.37;5.80;;;6.00;97.40;;;;;;5008540;28;20522;-71
2022/03/02 12:47:36;;;;;;;8.07;5.43;;;6.10;97.40;;;;;;5018788;28;20987;-69
2022/03/02 12:50:05;;;;;;;9.70;6.90;;;6.10;97.70;;;;;;5008571;28;20467;-70
2022/03/02 12:52:31;;;;;;;10.03;5.80;;;6.30;97.70;;;;;;5009281;28;20483;-69
2022/03/02 12:55:00;;;;;;;10.27;6.50;;;6.40;97.80;;;;;;5034648;28;20505;-69
2022/03/02 12:57:29;;;;;;;6.50;5.27;;;6.50;97.80;;;;;;5020098;28;20244;-72
2022/03/02 12:59:56;;;;;;;9.07;5.67;;;6.60;97.00;;;;;;5019495;28;20451;-71